createdAt,value
2023-05-21T00:02:20.976Z,98175.88
2023-05-21T00:04:47.722Z,98175.38
2023-05-21T00:07:15.396Z,98173.78
2023-05-21T00:09:42.090Z,98169.91
2023-05-21T00:12:09.308Z,98168.78
2023-05-21T00:14:36.320Z,98163.63
2023-05-21T00:17:02.862Z,98173.78
2023-05-21T00:19:29.395Z,98172.19
2023-05-21T00:21:56.069Z,98165.13
2023-05-21T00:24:22.584Z,98163.97
2023-05-21T00:26:49.017Z,98160.00
2023-05-21T00:29:15.657Z,98152.94
2023-05-21T00:31:42.205Z,98159.22
2023-05-21T00:34:08.743Z,98155.69
2023-05-21T00:36:35.552Z,98153.72
2023-05-21T00:39:02.493Z,98151.44
2023-05-21T00:41:30.204Z,98147.13
2023-05-21T00:43:57.195Z,98148.72
2023-05-21T00:46:24.253Z,98140.94
2023-05-21T00:48:51.219Z,98144.81
2023-05-21T00:51:18.542Z,98145.41
2023-05-21T00:53:46.629Z,98137.09
2023-05-21T00:56:13.600Z,98138.22
2023-05-21T00:58:40.948Z,98135.50
2023-05-21T01:01:13.494Z,98138.22
2023-05-21T01:03:41.043Z,98138.22
2023-05-21T01:06:09.621Z,98135.81
2023-05-21T01:08:37.587Z,98138.00
2023-05-21T01:11:05.741Z,98137.06
2023-05-21T01:13:34.549Z,98139.47
2023-05-21T01:16:01.956Z,98135.59
2023-05-21T01:18:29.727Z,98134.78
2023-05-21T01:20:56.234Z,98133.88
2023-05-21T01:23:22.938Z,98126.78
2023-05-21T01:25:49.355Z,98127.50
2023-05-21T01:28:15.965Z,98130.22
2023-05-21T01:30:43.655Z,98124.31
2023-05-21T01:33:18.388Z,98130.91
2023-05-21T01:35:57.424Z,98133.53
2023-05-21T01:38:57.400Z,98129.06
2023-05-21T01:41:27.080Z,98123.84
2023-05-21T01:43:56.545Z,98126.09
2023-05-21T01:46:27.370Z,98120.88
2023-05-21T01:48:56.166Z,98127.13
2023-05-21T01:51:23.918Z,98121.97
2023-05-21T01:53:50.551Z,98124.94
2023-05-21T01:56:16.991Z,98122.56
2023-05-21T01:58:44.024Z,98123.56
2023-05-21T02:01:11.789Z,98121.63
2023-05-21T02:03:38.679Z,98116.97
2023-05-21T02:06:05.445Z,98118.09
2023-05-21T02:08:31.895Z,98119.25
2023-05-21T02:10:58.394Z,98115.72
2023-05-21T02:13:26.615Z,98118.75
2023-05-21T02:15:54.765Z,98112.19
2023-05-21T02:18:21.879Z,98110.56
2023-05-21T02:20:48.392Z,98117.16
2023-05-21T02:23:14.962Z,98112.50
2023-05-21T02:25:41.501Z,98112.84
2023-05-21T02:28:07.939Z,98120.59
2023-05-21T02:30:34.767Z,98108.72
2023-05-21T02:33:02.842Z,98111.00
2023-05-21T02:35:29.540Z,98112.59
2023-05-21T02:37:59.231Z,98112.59
2023-05-21T02:40:26.143Z,98113.06
2023-05-21T02:42:52.561Z,98111.94
2023-05-21T02:45:19.096Z,98114.19
2023-05-21T02:47:45.630Z,98111.81
2023-05-21T02:50:14.046Z,98106.88
2023-05-21T02:52:41.575Z,98106.78
2023-05-21T02:55:09.885Z,98113.69
2023-05-21T02:57:36.341Z,98110.63
2023-05-21T03:00:03.822Z,98111.75
2023-05-21T03:02:30.513Z,98108.25
2023-05-21T03:04:56.986Z,98112.81
2023-05-21T03:07:24.370Z,98108.00
2023-05-21T03:09:50.821Z,98105.94
2023-05-21T03:12:17.328Z,98100.00
2023-05-21T03:14:44.194Z,98104.53
2023-05-21T03:17:13.912Z,98092.66
2023-05-21T03:19:41.627Z,98093.34
2023-05-21T03:22:08.087Z,98095.59
2023-05-21T03:24:35.323Z,98090.13
2023-05-21T03:27:02.254Z,98094.00
2023-05-21T03:29:29.085Z,98086.16
2023-05-21T03:31:56.067Z,98093.88
2023-05-21T03:34:23.198Z,98094.69
2023-05-21T03:36:50.653Z,98094.53
2023-05-21T03:39:17.374Z,98093.09
2023-05-21T03:41:43.901Z,98089.88
2023-05-21T03:44:10.426Z,98094.44
2023-05-21T03:46:36.971Z,98096.22
2023-05-21T03:49:03.474Z,98092.59
2023-05-21T03:51:31.738Z,98092.25
2023-05-21T03:53:59.405Z,98102.03
2023-05-21T03:56:26.309Z,98095.09
2023-05-21T03:58:53.157Z,98100.53
2023-05-21T04:01:19.985Z,98104.41
2023-05-21T04:03:46.932Z,98102.81
2023-05-21T04:06:13.654Z,98109.09
2023-05-21T04:08:40.132Z,98110.56
2023-05-21T04:11:06.696Z,98112.16
2023-05-21T04:13:33.156Z,98113.63
2023-05-21T04:15:59.841Z,98116.03
2023-05-21T04:18:26.749Z,98118.75
2023-05-21T04:20:53.878Z,98115.75
2023-05-21T04:23:23.617Z,98120.53
2023-05-21T04:25:50.797Z,98123.72
2023-05-21T04:28:21.070Z,98124.66
2023-05-21T04:30:47.896Z,98128.34
2023-05-21T04:33:18.245Z,98134.28
2023-05-21T04:35:49.937Z,98137.44
2023-05-21T04:38:20.322Z,98138.41
2023-05-21T04:40:51.039Z,98134.63
2023-05-21T04:43:17.869Z,98138.66
2023-05-21T04:45:44.373Z,98132.50
2023-05-21T04:48:10.822Z,98135.72
2023-05-21T04:50:37.328Z,98147.59
2023-05-21T04:53:03.737Z,98148.53
2023-05-21T04:55:30.229Z,98143.53
2023-05-21T04:57:57.382Z,98146.25
2023-05-21T05:00:26.073Z,98141.91
2023-05-21T05:02:52.680Z,98148.53
2023-05-21T05:05:19.273Z,98145.13
2023-05-21T05:07:45.749Z,98153.53
2023-05-21T05:10:12.222Z,98146.13
2023-05-21T05:12:38.730Z,98155.59
2023-05-21T05:15:05.877Z,98145.59
2023-05-21T05:17:32.368Z,98145.59
2023-05-21T05:19:58.836Z,98144.91
2023-05-21T05:22:25.341Z,98145.84
2023-05-21T05:24:51.794Z,98147.22
2023-05-21T05:27:18.464Z,98138.81
2023-05-21T05:29:45.604Z,98141.66
2023-05-21T05:32:12.097Z,98147.25
2023-05-21T05:34:38.864Z,98151.47
2023-05-21T05:37:05.429Z,98148.59
2023-05-21T05:39:31.944Z,98153.06
2023-05-21T05:41:58.433Z,98148.63
2023-05-21T05:44:24.981Z,98148.44
2023-05-21T05:46:51.427Z,98141.59
2023-05-21T05:49:17.929Z,98150.94
2023-05-21T05:51:44.806Z,98147.88
2023-05-21T05:54:11.255Z,98155.88
2023-05-21T05:56:37.771Z,98148.22
2023-05-21T05:59:04.260Z,98154.16
2023-05-21T06:01:31.993Z,98145.50
2023-05-21T06:03:58.589Z,98152.38
2023-05-21T06:06:24.999Z,98150.28
2023-05-21T06:08:51.500Z,98150.56
2023-05-21T06:11:20.671Z,98157.41
2023-05-21T06:13:47.177Z,98143.47
2023-05-21T06:16:13.895Z,98156.03
2023-05-21T06:18:40.432Z,98160.72
2023-05-21T06:21:06.897Z,98154.44
2023-05-21T06:23:35.430Z,98159.25
2023-05-21T06:26:01.965Z,98157.63
2023-05-21T06:28:28.438Z,98157.84
2023-05-21T06:30:54.970Z,98157.06
2023-05-21T06:33:21.617Z,98157.63
2023-05-21T06:35:48.204Z,98156.94
2023-05-21T06:38:14.698Z,98153.78
2023-05-21T06:40:41.188Z,98150.91
2023-05-21T06:43:07.688Z,98152.16
2023-05-21T06:45:34.346Z,98157.06
2023-05-21T06:48:01.047Z,98154.88
2023-05-21T06:50:27.758Z,98157.97
2023-05-21T06:52:54.302Z,98159.56
2023-05-21T06:55:21.257Z,98164.38
2023-05-21T06:57:47.696Z,98166.28
2023-05-21T07:00:14.377Z,98158.31
2023-05-21T07:02:40.919Z,98163.44
2023-05-21T07:05:08.148Z,98159.19
2023-05-21T07:07:34.943Z,98163.06
2023-05-21T07:10:01.488Z,98163.94
2023-05-21T07:12:27.988Z,98169.34
2023-05-21T07:14:54.468Z,98174.81
2023-05-21T07:17:21.000Z,98168.53
2023-05-21T07:19:47.508Z,98168.28
2023-05-21T07:22:14.466Z,98170.34
2023-05-21T07:24:40.977Z,98172.94
2023-05-21T07:27:14.519Z,98173.47
2023-05-21T07:29:52.028Z,98173.69
2023-05-21T07:32:18.644Z,98161.97
2023-05-21T07:34:45.154Z,98159.63
2023-05-21T07:37:11.729Z,98164.78
2023-05-21T07:39:38.221Z,98170.84
2023-05-21T07:42:05.090Z,98159.16
2023-05-21T07:44:31.940Z,98158.53
2023-05-21T07:46:58.383Z,98158.09
2023-05-21T07:49:24.818Z,98159.19
2023-05-21T07:51:51.626Z,98155.53
2023-05-21T07:54:19.767Z,98160.56
2023-05-21T07:56:46.351Z,98157.69
2023-05-21T07:59:14.599Z,98159.28
2023-05-21T08:01:41.970Z,98153.72
2023-05-21T08:04:08.658Z,98153.53
2023-05-21T08:06:35.312Z,98154.25
2023-05-21T08:09:02.015Z,98148.41
2023-05-21T08:11:28.610Z,98160.69
2023-05-21T08:13:55.517Z,98163.78
2023-05-21T08:16:23.483Z,98149.47
2023-05-21T08:18:50.799Z,98147.06
2023-05-21T08:21:17.458Z,98152.00
2023-05-21T08:23:44.340Z,98150.00
2023-05-21T08:26:10.832Z,98158.28
2023-05-21T08:28:40.548Z,98156.94
2023-05-21T08:31:06.975Z,98154.78
2023-05-21T08:33:37.488Z,98156.16
2023-05-21T08:36:05.849Z,98162.31
2023-05-21T08:38:32.641Z,98160.84
2023-05-21T08:41:00.167Z,98162.84
2023-05-21T08:43:28.227Z,98159.78
2023-05-21T08:45:57.293Z,98163.97
2023-05-21T08:48:24.676Z,98166.88
2023-05-21T08:50:54.794Z,98159.28
2023-05-21T08:53:28.166Z,98159.97
2023-05-21T08:55:57.303Z,98154.66
2023-05-21T08:58:24.155Z,98158.22
2023-05-21T09:00:51.052Z,98158.81
2023-05-21T09:03:17.802Z,98164.44
2023-05-21T09:05:45.757Z,98164.63
2023-05-21T09:08:19.410Z,98167.53
2023-05-21T09:10:52.067Z,98164.44
2023-05-21T09:13:20.002Z,98162.13
2023-05-21T09:15:47.282Z,98162.13
2023-05-21T09:18:14.708Z,98167.66
2023-05-21T09:20:41.582Z,98169.22
2023-05-21T09:23:16.470Z,98166.16
2023-05-21T09:25:47.669Z,98164.59
2023-05-21T09:28:16.064Z,98169.16
2023-05-21T09:30:52.225Z,98175.06
2023-05-21T09:33:31.745Z,98162.69
2023-05-21T09:35:58.317Z,98162.94
2023-05-21T09:38:25.958Z,98167.38
2023-05-21T09:40:56.713Z,98152.56
2023-05-21T09:43:23.348Z,98168.41
2023-05-21T09:45:58.314Z,98154.34
2023-05-21T09:48:52.321Z,98169.59
2023-05-21T09:51:21.258Z,98162.28
2023-05-21T09:53:54.467Z,98150.16
2023-05-21T09:56:26.035Z,98158.28
2023-05-21T09:58:54.866Z,98151.78
2023-05-21T10:01:21.693Z,98149.16
2023-05-21T10:03:53.940Z,98147.25
2023-05-21T10:06:21.586Z,98148.53
2023-05-21T10:08:51.953Z,98145.88
2023-05-21T10:11:22.747Z,98149.13
2023-05-21T10:13:57.797Z,98138.06
2023-05-21T10:16:24.769Z,98150.00
2023-05-21T10:18:54.162Z,98149.56
2023-05-21T10:21:22.833Z,98149.94
2023-05-21T10:23:51.309Z,98137.28
2023-05-21T10:26:19.775Z,98143.19
2023-05-21T10:28:46.682Z,98141.16
2023-05-21T10:31:13.640Z,98139.13
2023-05-21T10:33:42.414Z,98145.78
2023-05-21T10:36:09.271Z,98138.66
2023-05-21T10:38:38.533Z,98144.44
2023-05-21T10:41:07.225Z,98139.88
2023-05-21T10:44:02.746Z,98131.06
2023-05-21T10:47:05.634Z,98138.22
2023-05-21T10:50:12.859Z,98133.09
2023-05-21T10:52:57.943Z,98128.91
2023-05-21T10:55:51.142Z,98141.66
2023-05-21T10:58:42.622Z,98123.44
2023-05-21T11:01:10.963Z,98125.34
2023-05-21T11:03:38.259Z,98128.56
2023-05-21T11:06:08.492Z,98129.50
2023-05-21T11:08:35.731Z,98122.16
2023-05-21T11:11:03.249Z,98119.88
2023-05-21T11:13:48.668Z,98121.44
2023-05-21T11:16:16.773Z,98123.06
2023-05-21T11:18:44.899Z,98121.88
2023-05-21T11:21:15.327Z,98116.72
2023-05-21T11:23:50.973Z,98122.25
2023-05-21T11:26:22.610Z,98120.66
2023-05-21T11:29:04.363Z,98119.06
2023-05-21T11:31:41.402Z,98122.66
2023-05-21T11:34:14.651Z,98113.56
2023-05-21T11:36:44.558Z,98109.63
2023-05-21T11:39:17.756Z,98109.66
2023-05-21T11:42:04.485Z,98108.03
2023-05-21T11:44:39.116Z,98098.16
2023-05-21T11:47:06.882Z,98108.81
2023-05-21T11:49:34.169Z,98109.66
2023-05-21T11:52:01.668Z,98108.88
2023-05-21T11:54:34.182Z,98106.47
2023-05-21T11:57:01.813Z,98103.69
2023-05-21T11:59:28.371Z,98108.84
2023-05-21T12:01:59.247Z,98101.34
2023-05-21T12:04:36.426Z,98104.09
2023-05-21T12:07:09.715Z,98104.91
2023-05-21T12:09:47.458Z,98105.66
2023-05-21T12:12:19.145Z,98108.81
2023-05-21T12:14:47.869Z,98114.72
2023-05-21T12:17:28.057Z,98104.47
2023-05-21T12:19:56.723Z,98106.06
2023-05-21T12:22:24.696Z,98109.66
2023-05-21T12:24:51.441Z,98102.09
2023-05-21T12:27:18.265Z,98102.91
2023-05-21T12:29:46.570Z,98112.44
2023-05-21T12:32:15.879Z,98107.28
2023-05-21T12:34:46.328Z,98102.50
2023-05-21T12:37:21.965Z,98111.63
2023-05-21T12:39:50.325Z,98106.88
2023-05-21T12:42:23.445Z,98103.72
2023-05-21T12:44:52.643Z,98103.31
2023-05-21T12:47:19.298Z,98110.06
2023-05-21T12:49:49.110Z,98106.47
2023-05-21T12:52:19.090Z,98113.19
2023-05-21T12:54:49.804Z,98112.41
2023-05-21T12:57:17.429Z,98111.19
2023-05-21T12:59:48.741Z,98108.00
2023-05-21T13:02:40.252Z,98104.84
2023-05-21T13:05:08.845Z,98112.75
2023-05-21T13:07:37.612Z,98107.59
2023-05-21T13:10:05.462Z,98110.34
2023-05-21T13:12:33.436Z,98106.38
2023-05-21T13:15:02.175Z,98103.56
2023-05-21T13:17:29.443Z,98105.56
2023-05-21T13:20:15.276Z,98104.81
2023-05-21T13:22:46.404Z,98100.44
2023-05-21T13:25:15.809Z,98102.44
2023-05-21T13:27:42.896Z,98106.00
2023-05-21T13:30:11.333Z,98092.81
2023-05-21T13:32:38.883Z,98095.94
2023-05-21T13:35:05.934Z,98099.88
2023-05-21T13:37:36.186Z,98108.16
2023-05-21T13:40:06.855Z,98102.16
2023-05-21T13:42:34.625Z,98104.50
2023-05-21T13:45:01.222Z,98104.50
2023-05-21T13:47:27.832Z,98103.69
2023-05-21T13:49:54.312Z,98094.13
2023-05-21T13:52:21.537Z,98101.94
2023-05-21T13:54:48.072Z,98097.22
2023-05-21T13:57:15.097Z,98094.09
2023-05-21T13:59:41.704Z,98098.84
2023-05-21T14:02:09.122Z,98098.09
2023-05-21T14:04:37.850Z,98102.88
2023-05-21T14:07:06.496Z,98098.53
2023-05-21T14:09:33.498Z,98098.13
2023-05-21T14:11:59.953Z,98097.28
2023-05-21T14:14:26.761Z,98099.72
2023-05-21T14:16:53.342Z,98096.97
2023-05-21T14:19:19.989Z,98104.13
2023-05-21T14:21:46.445Z,98098.94
2023-05-21T14:24:15.934Z,98099.00
2023-05-21T14:26:43.870Z,98091.13
2023-05-21T14:29:10.584Z,98098.69
2023-05-21T14:31:37.832Z,98100.72
2023-05-21T14:34:05.131Z,98099.19
2023-05-21T14:36:32.497Z,98092.47
2023-05-21T14:38:59.196Z,98096.03
2023-05-21T14:41:26.980Z,98097.63
2023-05-21T14:43:53.864Z,98084.94
2023-05-21T14:46:20.700Z,98090.13
2023-05-21T14:48:47.304Z,98081.41
2023-05-21T14:51:14.789Z,98080.63
2023-05-21T14:53:41.405Z,98079.44
2023-05-21T14:56:08.093Z,98075.50
2023-05-21T14:58:34.972Z,98073.91
2023-05-21T15:01:02.503Z,98076.28
2023-05-21T15:03:29.179Z,98077.06
2023-05-21T15:05:55.979Z,98076.28
2023-05-21T15:08:22.688Z,98071.50
2023-05-21T15:10:50.993Z,98078.63
2023-05-21T15:13:17.455Z,98076.22
2023-05-21T15:15:44.409Z,98074.22
2023-05-21T15:18:11.769Z,98074.63
2023-05-21T15:20:38.288Z,98062.66
2023-05-21T15:23:16.142Z,98061.78
2023-05-21T15:25:43.658Z,98071.25
2023-05-21T15:28:11.903Z,98068.00
2023-05-21T15:30:38.438Z,98063.97
2023-05-21T15:33:04.896Z,98055.22
2023-05-21T15:35:31.547Z,98061.53
2023-05-21T15:37:58.194Z,98051.25
2023-05-21T15:40:26.890Z,98056.84
2023-05-21T15:42:53.841Z,98059.69
2023-05-21T15:45:20.429Z,98066.44
2023-05-21T15:47:48.081Z,98060.06
2023-05-21T15:50:14.754Z,98059.31
2023-05-21T15:52:42.160Z,98058.16
2023-05-21T15:55:11.087Z,98059.41
2023-05-21T15:57:37.551Z,98060.19
2023-05-21T16:00:05.029Z,98053.91
2023-05-21T16:02:31.667Z,98063.47
2023-05-21T16:04:58.278Z,98062.72
2023-05-21T16:07:24.735Z,98063.53
2023-05-21T16:09:51.255Z,98058.44
2023-05-21T16:12:17.925Z,98057.66
2023-05-21T16:14:49.803Z,98063.25
2023-05-21T16:17:16.552Z,98062.84
2023-05-21T16:19:43.026Z,98066.81
2023-05-21T16:22:10.769Z,98059.28
2023-05-21T16:24:38.162Z,98059.66
2023-05-21T16:27:05.032Z,98060.81
2023-05-21T16:29:31.862Z,98058.84
2023-05-21T16:31:58.421Z,98055.28
2023-05-21T16:34:24.872Z,98057.66
2023-05-21T16:36:51.732Z,98055.66
2023-05-21T16:39:18.380Z,98048.50
2023-05-21T16:41:44.830Z,98047.63
2023-05-21T16:44:11.577Z,98050.38
2023-05-21T16:46:38.257Z,98051.53
2023-05-21T16:49:04.826Z,98049.19
2023-05-21T16:51:31.527Z,98045.19
2023-05-21T16:53:58.145Z,98050.72
2023-05-21T16:56:24.737Z,98047.56
2023-05-21T16:58:51.196Z,98049.13
2023-05-21T17:01:17.773Z,98045.97
2023-05-21T17:03:44.485Z,98051.13
2023-05-21T17:06:11.193Z,98050.75
2023-05-21T17:08:37.618Z,98045.25
2023-05-21T17:11:04.166Z,98043.69
2023-05-21T17:13:30.749Z,98043.69
2023-05-21T17:15:57.337Z,98040.53
2023-05-21T17:18:23.918Z,98037.84
2023-05-21T17:20:50.598Z,98041.47
2023-05-21T17:23:17.242Z,98047.41
2023-05-21T17:25:43.844Z,98040.69
2023-05-21T17:28:11.148Z,98043.09
2023-05-21T17:30:37.706Z,98041.94
2023-05-21T17:33:04.214Z,98043.91
2023-05-21T17:35:30.870Z,98045.91
2023-05-21T17:37:57.413Z,98047.09
2023-05-21T17:40:24.522Z,98050.66
2023-05-21T17:42:52.135Z,98055.81
2023-05-21T17:45:18.746Z,98051.84
2023-05-21T17:47:45.293Z,98049.84
2023-05-21T17:50:11.807Z,98044.72
2023-05-21T17:52:38.291Z,98054.19
2023-05-21T17:55:05.384Z,98054.59
2023-05-21T17:57:31.961Z,98052.63
2023-05-21T17:59:58.560Z,98054.19
2023-05-21T18:02:26.003Z,98056.56
2023-05-21T18:04:52.629Z,98055.75
2023-05-21T18:07:19.154Z,98059.72
2023-05-21T18:09:45.694Z,98054.94
2023-05-21T18:12:12.225Z,98053.34
2023-05-21T18:14:38.652Z,98057.28
2023-05-21T18:17:05.932Z,98057.63
2023-05-21T18:19:32.766Z,98062.38
2023-05-21T18:21:59.325Z,98053.66
2023-05-21T18:24:25.817Z,98062.72
2023-05-21T18:26:52.333Z,98059.91
2023-05-21T18:29:18.891Z,98066.59
2023-05-21T18:31:45.595Z,98060.66
2023-05-21T18:34:12.255Z,98069.28
2023-05-21T18:36:39.115Z,98067.28
2023-05-21T18:39:07.282Z,98065.25
2023-05-21T18:41:33.985Z,98067.94
2023-05-21T18:44:03.395Z,98067.91
2023-05-21T18:46:29.982Z,98071.75
2023-05-21T18:48:56.628Z,98071.31
2023-05-21T18:51:23.418Z,98074.81
2023-05-21T18:53:49.844Z,98077.91
2023-05-21T18:56:17.762Z,98075.91
2023-05-21T18:58:44.411Z,98077.41
2023-05-21T19:01:10.991Z,98083.28
2023-05-21T19:03:38.389Z,98091.91
2023-05-21T19:06:05.043Z,98087.88
2023-05-21T19:08:31.697Z,98088.59
2023-05-21T19:10:58.282Z,98092.50
2023-05-21T19:13:26.081Z,98091.25
2023-05-21T19:15:52.512Z,98086.84
2023-05-21T19:18:19.055Z,98095.50
2023-05-21T19:20:45.776Z,98095.78
2023-05-21T19:23:12.440Z,98100.81
2023-05-21T19:25:39.063Z,98103.91
2023-05-21T19:28:05.761Z,98099.91
2023-05-21T19:30:34.898Z,98110.47
2023-05-21T19:33:02.007Z,98099.72
2023-05-21T19:35:28.632Z,98101.19
2023-05-21T19:37:58.983Z,98115.25
2023-05-21T19:40:26.109Z,98114.31
2023-05-21T19:42:52.652Z,98110.38
2023-05-21T19:45:21.377Z,98110.75
2023-05-21T19:47:48.735Z,98120.53
2023-05-21T19:50:15.525Z,98124.84
2023-05-21T19:52:42.274Z,98119.72
2023-05-21T19:55:11.197Z,98118.06
2023-05-21T19:57:37.966Z,98125.13
2023-05-21T20:00:05.499Z,98125.03
2023-05-21T20:02:32.043Z,98127.28
2023-05-21T20:04:59.200Z,98125.59
2023-05-21T20:07:25.958Z,98123.91
2023-05-21T20:09:52.740Z,98127.34
2023-05-21T20:12:19.552Z,98127.66
2023-05-21T20:14:48.665Z,98131.06
2023-05-21T20:17:18.836Z,98133.31
2023-05-21T20:19:48.703Z,98135.56
2023-05-21T20:22:16.042Z,98129.53
2023-05-21T20:24:43.479Z,98130.28
2023-05-21T20:27:10.143Z,98131.78
2023-05-21T20:29:36.772Z,98131.34
2023-05-21T20:32:03.360Z,98127.03
2023-05-21T20:34:29.993Z,98134.03
2023-05-21T20:37:00.016Z,98137.91
2023-05-21T20:39:29.831Z,98131.09
2023-05-21T20:41:56.480Z,98125.09
2023-05-21T20:44:23.023Z,98142.69
2023-05-21T20:46:49.841Z,98128.81
2023-05-21T20:49:17.538Z,98133.81
2023-05-21T20:51:44.343Z,98134.47
2023-05-21T20:54:11.615Z,98126.06
2023-05-21T20:56:42.534Z,98127.97
2023-05-21T20:59:11.148Z,98129.84
2023-05-21T21:01:38.444Z,98134.13
2023-05-21T21:04:05.263Z,98138.72
2023-05-21T21:06:31.979Z,98133.16
2023-05-21T21:08:58.755Z,98137.72
2023-05-21T21:11:26.674Z,98142.75
2023-05-21T21:13:53.325Z,98139.16
2023-05-21T21:16:19.823Z,98145.72
2023-05-21T21:18:47.097Z,98138.50
2023-05-21T21:21:13.856Z,98138.41
2023-05-21T21:23:40.499Z,98145.84
2023-05-21T21:26:07.138Z,98142.25
2023-05-21T21:28:33.756Z,98143.31
2023-05-21T21:31:00.524Z,98134.19
2023-05-21T21:33:27.083Z,98140.41
2023-05-21T21:35:53.608Z,98143.53
2023-05-21T21:38:20.048Z,98144.97
2023-05-21T21:40:46.524Z,98142.13
2023-05-21T21:43:13.081Z,98138.16
2023-05-21T21:45:39.644Z,98140.72
2023-05-21T21:48:06.760Z,98140.94
2023-05-21T21:50:33.274Z,98142.78
2023-05-21T21:52:59.921Z,98144.31
2023-05-21T21:55:26.481Z,98157.81
2023-05-21T21:57:53.119Z,98158.81
2023-05-21T22:00:22.249Z,98153.84
2023-05-21T22:02:48.718Z,98150.66
2023-05-21T22:05:17.356Z,98152.59
2023-05-21T22:07:47.161Z,98152.25
2023-05-21T22:10:17.303Z,98152.94
2023-05-21T22:12:44.663Z,98155.97
2023-05-21T22:15:18.728Z,98147.28
2023-05-21T22:17:48.323Z,98149.59
2023-05-21T22:20:15.074Z,98155.06
2023-05-21T22:22:41.601Z,98151.72
2023-05-21T22:25:08.385Z,98153.19
2023-05-21T22:27:34.834Z,98155.41
2023-05-21T22:30:01.315Z,98152.94
2023-05-21T22:32:27.845Z,98158.41
2023-05-21T22:34:54.297Z,98159.91
2023-05-21T22:37:21.173Z,98157.16
2023-05-21T22:39:47.593Z,98159.09
2023-05-21T22:42:14.086Z,98157.06
2023-05-21T22:44:40.879Z,98158.22
2023-05-21T22:47:09.356Z,98155.03
2023-05-21T22:49:38.088Z,98157.31
2023-05-21T22:52:06.290Z,98159.63
2023-05-21T22:54:33.057Z,98156.44
2023-05-21T22:57:01.140Z,98150.50
2023-05-21T22:59:32.299Z,98156.69
2023-05-21T23:01:59.275Z,98154.19
2023-05-21T23:04:42.734Z,98153.31
2023-05-21T23:07:10.228Z,98162.22
2023-05-21T23:09:36.789Z,98155.81
2023-05-21T23:12:03.773Z,98149.88
2023-05-21T23:14:30.444Z,98152.19
2023-05-21T23:17:01.783Z,98151.28
2023-05-21T23:19:29.557Z,98153.56
2023-05-21T23:21:56.410Z,98147.66
2023-05-21T23:24:22.988Z,98153.81
2023-05-21T23:26:49.441Z,98154.53
2023-05-21T23:29:15.945Z,98160.69
2023-05-21T23:31:42.751Z,98162.06
2023-05-21T23:34:09.586Z,98159.31
2023-05-21T23:36:36.175Z,98163.72
2023-05-21T23:39:02.775Z,98156.19
2023-05-21T23:41:29.491Z,98157.78
2023-05-21T23:43:56.047Z,98162.13
2023-05-21T23:46:22.833Z,98161.66
2023-05-21T23:48:49.567Z,98161.44
2023-05-21T23:51:16.237Z,98158.25
2023-05-21T23:53:42.757Z,98155.88
2023-05-21T23:56:09.238Z,98160.09
2023-05-21T23:58:35.953Z,98163.53
